sensor_id;sensor_type;location;lat;lon;timestamp;temperature;humidity
22471;DHT22;11402;51.374;6.594;2022-12-29T00:01:29;11.00;99.90
22471;DHT22;11402;51.374;6.594;2022-12-29T00:03:55;11.00;99.90
22471;DHT22;11402;51.374;6.594;2022-12-29T00:06:20;11.00;99.90
22471;DHT22;11402;51.374;6.594;2022-12-29T00:08:46;11.00;99.90
22471;DHT22;11402;51.374;6.594;2022-12-29T00:11:14;11.00;99.90
22471;DHT22;11402;51.374;6.594;2022-12-29T00:13:40;11.00;99.90
22471;DHT22;11402;51.374;6.594;2022-12-29T00:16:25;11.00;99.90
22471;DHT22;11402;51.374;6.594;2022-12-29T00:18:51;11.10;99.90
22471;DHT22;11402;51.374;6.594;2022-12-29T00:21:19;11.10;99.90
22471;DHT22;11402;51.374;6.594;2022-12-29T00:24:04;11.10;99.90
22471;DHT22;11402;51.374;6.594;2022-12-29T00:27:13;11.10;99.90
22471;DHT22;11402;51.374;6.594;2022-12-29T00:29:58;11.20;99.90
22471;DHT22;11402;51.374;6.594;2022-12-29T00:32:42;11.20;99.90
22471;DHT22;11402;51.374;6.594;2022-12-29T00:35:31;11.40;99.90
22471;DHT22;11402;51.374;6.594;2022-12-29T00:38:05;11.40;99.90
22471;DHT22;11402;51.374;6.594;2022-12-29T00:40:51;11.40;99.90
22471;DHT22;11402;51.374;6.594;2022-12-29T00:43:35;11.30;99.90
22471;DHT22;11402;51.374;6.594;2022-12-29T00:46:19;11.10;99.90
22471;DHT22;11402;51.374;6.594;2022-12-29T00:48:45;11.30;99.90
22471;DHT22;11402;51.374;6.594;2022-12-29T00:51:29;11.20;99.90
22471;DHT22;11402;51.374;6.594;2022-12-29T00:53:55;11.00;99.90
22471;DHT22;11402;51.374;6.594;2022-12-29T00:56:20;11.00;99.90
22471;DHT22;11402;51.374;6.594;2022-12-29T00:58:46;11.10;99.90
22471;DHT22;11402;51.374;6.594;2022-12-29T01:01:11;11.10;99.90
22471;DHT22;11402;51.374;6.594;2022-12-29T01:03:37;11.10;99.90
22471;DHT22;11402;51.374;6.594;2022-12-29T01:06:05;11.20;99.90
22471;DHT22;11402;51.374;6.594;2022-12-29T01:08:31;11.20;99.90
22471;DHT22;11402;51.374;6.594;2022-12-29T01:11:02;11.20;99.90
22471;DHT22;11402;51.374;6.594;2022-12-29T01:13:28;11.40;99.90
22471;DHT22;11402;51.374;6.594;2022-12-29T01:15:54;11.40;99.90
22471;DHT22;11402;51.374;6.594;2022-12-29T01:18:20;11.40;99.90
22471;DHT22;11402;51.374;6.594;2022-12-29T01:20:46;11.50;99.90
22471;DHT22;11402;51.374;6.594;2022-12-29T01:23:12;11.40;99.90
22471;DHT22;11402;51.374;6.594;2022-12-29T01:25:37;11.50;99.90
22471;DHT22;11402;51.374;6.594;2022-12-29T01:28:03;11.50;99.90
22471;DHT22;11402;51.374;6.594;2022-12-29T01:30:28;11.40;99.90
22471;DHT22;11402;51.374;6.594;2022-12-29T01:32:54;11.50;99.90
22471;DHT22;11402;51.374;6.594;2022-12-29T01:35:20;11.50;99.90
22471;DHT22;11402;51.374;6.594;2022-12-29T01:37:45;11.50;99.90
22471;DHT22;11402;51.374;6.594;2022-12-29T01:40:11;11.60;99.90
22471;DHT22;11402;51.374;6.594;2022-12-29T01:42:37;11.60;99.90
22471;DHT22;11402;51.374;6.594;2022-12-29T01:45:09;11.60;99.90
22471;DHT22;11402;51.374;6.594;2022-12-29T01:47:41;11.60;99.90
22471;DHT22;11402;51.374;6.594;2022-12-29T01:50:15;11.60;99.90
22471;DHT22;11402;51.374;6.594;2022-12-29T01:52:53;11.60;99.90
22471;DHT22;11402;51.374;6.594;2022-12-29T01:55:21;11.70;99.90
22471;DHT22;11402;51.374;6.594;2022-12-29T01:57:49;11.60;99.90
22471;DHT22;11402;51.374;6.594;2022-12-29T02:00:16;11.60;99.90
22471;DHT22;11402;51.374;6.594;2022-12-29T02:02:45;11.60;99.90
22471;DHT22;11402;51.374;6.594;2022-12-29T02:05:21;11.60;99.90
22471;DHT22;11402;51.374;6.594;2022-12-29T02:07:48;11.60;99.90
22471;DHT22;11402;51.374;6.594;2022-12-29T02:10:15;11.70;99.90
22471;DHT22;11402;51.374;6.594;2022-12-29T02:12:41;11.70;99.90
22471;DHT22;11402;51.374;6.594;2022-12-29T02:15:07;11.70;99.90
22471;DHT22;11402;51.374;6.594;2022-12-29T02:20:50;11.60;99.90
22471;DHT22;11402;51.374;6.594;2022-12-29T02:31:39;11.60;99.90
22471;DHT22;11402;51.374;6.594;2022-12-29T02:37:06;11.50;99.90
22471;DHT22;11402;51.374;6.594;2022-12-29T02:39:38;11.60;99.90
22471;DHT22;11402;51.374;6.594;2022-12-29T02:43:08;11.60;99.90
22471;DHT22;11402;51.374;6.594;2022-12-29T02:47:55;11.60;99.90
22471;DHT22;11402;51.374;6.594;2022-12-29T02:50:40;11.60;99.90
22471;DHT22;11402;51.374;6.594;2022-12-29T02:53:14;11.70;99.90
22471;DHT22;11402;51.374;6.594;2022-12-29T02:55:51;11.60;99.90
22471;DHT22;11402;51.374;6.594;2022-12-29T02:58:18;11.70;99.90
22471;DHT22;11402;51.374;6.594;2022-12-29T03:09:19;11.70;99.90
22471;DHT22;11402;51.374;6.594;2022-12-29T03:12:09;11.60;99.90
22471;DHT22;11402;51.374;6.594;2022-12-29T03:15:05;11.60;99.90
22471;DHT22;11402;51.374;6.594;2022-12-29T03:17:58;11.70;99.90
22471;DHT22;11402;51.374;6.594;2022-12-29T03:20:39;11.70;99.90
22471;DHT22;11402;51.374;6.594;2022-12-29T03:23:07;11.70;99.90
22471;DHT22;11402;51.374;6.594;2022-12-29T03:25:39;11.70;99.90
22471;DHT22;11402;51.374;6.594;2022-12-29T03:28:12;11.70;99.90
22471;DHT22;11402;51.374;6.594;2022-12-29T03:30:39;11.70;99.90
22471;DHT22;11402;51.374;6.594;2022-12-29T03:33:10;11.70;99.90
22471;DHT22;11402;51.374;6.594;2022-12-29T03:35:39;11.70;99.90
22471;DHT22;11402;51.374;6.594;2022-12-29T03:38:13;11.70;99.90
22471;DHT22;11402;51.374;6.594;2022-12-29T03:40:44;11.70;99.90
22471;DHT22;11402;51.374;6.594;2022-12-29T03:43:11;11.70;99.90
22471;DHT22;11402;51.374;6.594;2022-12-29T03:45:38;11.70;99.90
22471;DHT22;11402;51.374;6.594;2022-12-29T03:48:04;11.70;99.90
22471;DHT22;11402;51.374;6.594;2022-12-29T03:50:30;11.70;99.90
22471;DHT22;11402;51.374;6.594;2022-12-29T03:52:55;11.70;99.90
22471;DHT22;11402;51.374;6.594;2022-12-29T03:55:21;11.70;99.90
22471;DHT22;11402;51.374;6.594;2022-12-29T03:57:47;11.70;99.90
22471;DHT22;11402;51.374;6.594;2022-12-29T04:00:12;11.70;99.90
22471;DHT22;11402;51.374;6.594;2022-12-29T04:02:38;11.60;99.90
22471;DHT22;11402;51.374;6.594;2022-12-29T04:05:04;11.60;99.90
22471;DHT22;11402;51.374;6.594;2022-12-29T04:07:30;11.70;99.90
22471;DHT22;11402;51.374;6.594;2022-12-29T04:09:55;11.60;99.90
22471;DHT22;11402;51.374;6.594;2022-12-29T04:12:21;11.70;99.90
22471;DHT22;11402;51.374;6.594;2022-12-29T04:14:46;11.70;99.90
22471;DHT22;11402;51.374;6.594;2022-12-29T04:17:12;11.70;99.90
22471;DHT22;11402;51.374;6.594;2022-12-29T04:19:38;11.60;99.90
22471;DHT22;11402;51.374;6.594;2022-12-29T04:22:03;11.70;99.90
22471;DHT22;11402;51.374;6.594;2022-12-29T04:24:29;11.80;99.90
22471;DHT22;11402;51.374;6.594;2022-12-29T04:26:54;11.80;99.90
22471;DHT22;11402;51.374;6.594;2022-12-29T04:29:20;11.80;99.90
22471;DHT22;11402;51.374;6.594;2022-12-29T04:31:45;11.90;99.90
22471;DHT22;11402;51.374;6.594;2022-12-29T04:34:11;11.90;99.90
22471;DHT22;11402;51.374;6.594;2022-12-29T04:36:36;11.90;99.90
22471;DHT22;11402;51.374;6.594;2022-12-29T04:39:02;11.90;99.90
22471;DHT22;11402;51.374;6.594;2022-12-29T04:41:30;11.90;99.90
22471;DHT22;11402;51.374;6.594;2022-12-29T04:43:56;11.90;99.90
22471;DHT22;11402;51.374;6.594;2022-12-29T04:46:21;11.90;99.90
22471;DHT22;11402;51.374;6.594;2022-12-29T04:48:47;11.90;99.90
22471;DHT22;11402;51.374;6.594;2022-12-29T04:51:12;11.90;99.90
22471;DHT22;11402;51.374;6.594;2022-12-29T04:53:38;11.90;99.90
22471;DHT22;11402;51.374;6.594;2022-12-29T04:56:04;11.90;99.90
22471;DHT22;11402;51.374;6.594;2022-12-29T04:58:29;11.90;99.90
22471;DHT22;11402;51.374;6.594;2022-12-29T05:00:55;12.00;99.90
22471;DHT22;11402;51.374;6.594;2022-12-29T05:03:21;11.90;99.90
22471;DHT22;11402;51.374;6.594;2022-12-29T05:05:46;11.90;99.90
22471;DHT22;11402;51.374;6.594;2022-12-29T05:08:12;12.00;99.90
22471;DHT22;11402;51.374;6.594;2022-12-29T05:10:37;12.00;99.90
22471;DHT22;11402;51.374;6.594;2022-12-29T05:13:03;12.00;99.90
22471;DHT22;11402;51.374;6.594;2022-12-29T05:15:28;11.90;99.90
22471;DHT22;11402;51.374;6.594;2022-12-29T05:17:54;11.90;99.90
22471;DHT22;11402;51.374;6.594;2022-12-29T05:20:20;11.90;99.90
22471;DHT22;11402;51.374;6.594;2022-12-29T05:22:45;11.90;99.90
22471;DHT22;11402;51.374;6.594;2022-12-29T05:25:11;11.90;99.90
22471;DHT22;11402;51.374;6.594;2022-12-29T05:27:37;11.90;99.90
22471;DHT22;11402;51.374;6.594;2022-12-29T05:30:03;11.80;99.90
22471;DHT22;11402;51.374;6.594;2022-12-29T05:32:28;11.80;99.90
22471;DHT22;11402;51.374;6.594;2022-12-29T05:34:54;11.70;99.90
22471;DHT22;11402;51.374;6.594;2022-12-29T05:37:19;11.70;99.90
22471;DHT22;11402;51.374;6.594;2022-12-29T05:39:45;11.70;99.90
22471;DHT22;11402;51.374;6.594;2022-12-29T05:42:10;11.70;99.90
22471;DHT22;11402;51.374;6.594;2022-12-29T05:44:36;11.60;99.90
22471;DHT22;11402;51.374;6.594;2022-12-29T05:47:02;11.50;99.90
22471;DHT22;11402;51.374;6.594;2022-12-29T05:49:27;11.50;99.90
22471;DHT22;11402;51.374;6.594;2022-12-29T05:51:53;11.40;99.90
22471;DHT22;11402;51.374;6.594;2022-12-29T05:54:18;11.40;99.90
22471;DHT22;11402;51.374;6.594;2022-12-29T05:56:44;11.40;99.90
22471;DHT22;11402;51.374;6.594;2022-12-29T05:59:09;11.30;99.90
22471;DHT22;11402;51.374;6.594;2022-12-29T06:01:35;11.40;99.90
22471;DHT22;11402;51.374;6.594;2022-12-29T06:04:00;11.20;99.90
22471;DHT22;11402;51.374;6.594;2022-12-29T06:06:26;11.30;99.90
22471;DHT22;11402;51.374;6.594;2022-12-29T06:08:52;11.20;99.90
22471;DHT22;11402;51.374;6.594;2022-12-29T06:11:17;11.20;99.90
22471;DHT22;11402;51.374;6.594;2022-12-29T06:13:43;11.20;99.90
22471;DHT22;11402;51.374;6.594;2022-12-29T06:16:08;11.20;99.90
22471;DHT22;11402;51.374;6.594;2022-12-29T06:18:34;11.30;99.90
22471;DHT22;11402;51.374;6.594;2022-12-29T06:21:01;11.30;99.90
22471;DHT22;11402;51.374;6.594;2022-12-29T06:23:27;11.30;99.90
22471;DHT22;11402;51.374;6.594;2022-12-29T06:25:52;11.40;99.90
22471;DHT22;11402;51.374;6.594;2022-12-29T06:28:18;11.40;99.90
22471;DHT22;11402;51.374;6.594;2022-12-29T06:30:47;11.50;99.90
22471;DHT22;11402;51.374;6.594;2022-12-29T06:33:13;11.40;99.90
22471;DHT22;11402;51.374;6.594;2022-12-29T06:35:39;11.40;99.90
22471;DHT22;11402;51.374;6.594;2022-12-29T06:38:04;11.40;99.90
22471;DHT22;11402;51.374;6.594;2022-12-29T06:40:31;11.40;99.90
22471;DHT22;11402;51.374;6.594;2022-12-29T06:42:56;11.40;99.90
22471;DHT22;11402;51.374;6.594;2022-12-29T06:45:22;11.40;99.90
22471;DHT22;11402;51.374;6.594;2022-12-29T06:47:47;11.40;99.90
22471;DHT22;11402;51.374;6.594;2022-12-29T06:50:13;11.30;99.90
22471;DHT22;11402;51.374;6.594;2022-12-29T06:52:39;11.40;99.90
22471;DHT22;11402;51.374;6.594;2022-12-29T06:55:04;11.40;99.90
22471;DHT22;11402;51.374;6.594;2022-12-29T06:57:30;11.40;99.90
22471;DHT22;11402;51.374;6.594;2022-12-29T06:59:56;11.50;99.90
22471;DHT22;11402;51.374;6.594;2022-12-29T07:02:22;11.50;99.90
22471;DHT22;11402;51.374;6.594;2022-12-29T07:04:47;11.50;99.90
22471;DHT22;11402;51.374;6.594;2022-12-29T07:07:13;11.50;99.90
22471;DHT22;11402;51.374;6.594;2022-12-29T07:09:38;11.60;99.90
22471;DHT22;11402;51.374;6.594;2022-12-29T07:12:04;11.50;99.90
22471;DHT22;11402;51.374;6.594;2022-12-29T07:14:30;11.50;99.90
22471;DHT22;11402;51.374;6.594;2022-12-29T07:16:55;11.60;99.90
22471;DHT22;11402;51.374;6.594;2022-12-29T07:19:21;11.50;99.90
22471;DHT22;11402;51.374;6.594;2022-12-29T07:21:46;11.50;99.90
22471;DHT22;11402;51.374;6.594;2022-12-29T07:24:12;11.50;99.90
22471;DHT22;11402;51.374;6.594;2022-12-29T07:26:38;11.40;99.90
22471;DHT22;11402;51.374;6.594;2022-12-29T07:29:03;11.50;99.90
22471;DHT22;11402;51.374;6.594;2022-12-29T07:31:29;11.40;99.90
22471;DHT22;11402;51.374;6.594;2022-12-29T07:33:55;11.40;99.90
22471;DHT22;11402;51.374;6.594;2022-12-29T07:36:21;11.50;99.90
22471;DHT22;11402;51.374;6.594;2022-12-29T07:38:46;11.50;99.90
22471;DHT22;11402;51.374;6.594;2022-12-29T07:41:12;11.50;99.90
22471;DHT22;11402;51.374;6.594;2022-12-29T07:43:37;11.50;99.90
22471;DHT22;11402;51.374;6.594;2022-12-29T07:46:03;11.50;99.90
22471;DHT22;11402;51.374;6.594;2022-12-29T07:48:29;11.50;99.90
22471;DHT22;11402;51.374;6.594;2022-12-29T07:50:54;11.50;99.90
22471;DHT22;11402;51.374;6.594;2022-12-29T07:53:20;11.40;99.90
22471;DHT22;11402;51.374;6.594;2022-12-29T07:55:45;11.40;99.90
22471;DHT22;11402;51.374;6.594;2022-12-29T07:58:11;11.40;99.90
22471;DHT22;11402;51.374;6.594;2022-12-29T08:00:38;11.40;99.90
22471;DHT22;11402;51.374;6.594;2022-12-29T08:03:04;11.30;99.90
22471;DHT22;11402;51.374;6.594;2022-12-29T08:05:33;11.40;99.90
22471;DHT22;11402;51.374;6.594;2022-12-29T08:07:59;11.30;99.90
22471;DHT22;11402;51.374;6.594;2022-12-29T08:10:25;11.30;99.90
22471;DHT22;11402;51.374;6.594;2022-12-29T08:12:51;11.30;99.90
22471;DHT22;11402;51.374;6.594;2022-12-29T08:15:16;11.30;99.90
22471;DHT22;11402;51.374;6.594;2022-12-29T08:17:42;11.30;99.90
22471;DHT22;11402;51.374;6.594;2022-12-29T08:20:08;11.40;99.90
22471;DHT22;11402;51.374;6.594;2022-12-29T08:22:35;11.40;99.90
22471;DHT22;11402;51.374;6.594;2022-12-29T08:25:00;11.40;99.90
22471;DHT22;11402;51.374;6.594;2022-12-29T08:27:26;11.40;99.90
22471;DHT22;11402;51.374;6.594;2022-12-29T08:29:52;11.40;99.90
22471;DHT22;11402;51.374;6.594;2022-12-29T08:32:17;11.40;99.90
22471;DHT22;11402;51.374;6.594;2022-12-29T08:34:43;11.40;99.90
22471;DHT22;11402;51.374;6.594;2022-12-29T08:37:08;11.40;99.90
22471;DHT22;11402;51.374;6.594;2022-12-29T08:39:34;11.40;99.90
22471;DHT22;11402;51.374;6.594;2022-12-29T08:41:59;11.40;99.90
22471;DHT22;11402;51.374;6.594;2022-12-29T08:44:25;11.40;99.90
22471;DHT22;11402;51.374;6.594;2022-12-29T08:46:51;11.40;99.90
22471;DHT22;11402;51.374;6.594;2022-12-29T08:49:16;11.30;99.90
22471;DHT22;11402;51.374;6.594;2022-12-29T08:51:42;11.30;99.90
22471;DHT22;11402;51.374;6.594;2022-12-29T08:54:07;11.20;99.90
22471;DHT22;11402;51.374;6.594;2022-12-29T08:56:33;11.20;99.90
22471;DHT22;11402;51.374;6.594;2022-12-29T08:58:58;11.20;99.90
22471;DHT22;11402;51.374;6.594;2022-12-29T09:01:24;11.20;99.90
22471;DHT22;11402;51.374;6.594;2022-12-29T09:03:50;11.20;99.90
22471;DHT22;11402;51.374;6.594;2022-12-29T09:06:16;11.10;99.90
22471;DHT22;11402;51.374;6.594;2022-12-29T09:08:43;11.10;99.90
22471;DHT22;11402;51.374;6.594;2022-12-29T09:11:22;11.20;99.90
22471;DHT22;11402;51.374;6.594;2022-12-29T09:13:48;11.20;99.90
22471;DHT22;11402;51.374;6.594;2022-12-29T09:16:15;11.30;99.90
22471;DHT22;11402;51.374;6.594;2022-12-29T09:18:41;11.30;99.90
22471;DHT22;11402;51.374;6.594;2022-12-29T09:21:07;11.30;99.90
22471;DHT22;11402;51.374;6.594;2022-12-29T09:23:33;11.30;99.90
22471;DHT22;11402;51.374;6.594;2022-12-29T09:25:59;11.30;99.90
22471;DHT22;11402;51.374;6.594;2022-12-29T09:28:25;11.30;99.90
22471;DHT22;11402;51.374;6.594;2022-12-29T09:30:51;11.30;99.90
22471;DHT22;11402;51.374;6.594;2022-12-29T09:33:17;11.20;99.90
22471;DHT22;11402;51.374;6.594;2022-12-29T09:35:43;11.30;99.90
22471;DHT22;11402;51.374;6.594;2022-12-29T09:38:09;11.30;99.90
22471;DHT22;11402;51.374;6.594;2022-12-29T09:40:35;11.30;99.90
22471;DHT22;11402;51.374;6.594;2022-12-29T09:48:50;11.30;99.90
22471;DHT22;11402;51.374;6.594;2022-12-29T09:51:21;11.30;99.90
22471;DHT22;11402;51.374;6.594;2022-12-29T09:53:57;11.30;99.90
22471;DHT22;11402;51.374;6.594;2022-12-29T09:56:25;11.30;99.90
22471;DHT22;11402;51.374;6.594;2022-12-29T09:59:15;11.30;99.90
22471;DHT22;11402;51.374;6.594;2022-12-29T10:01:57;11.30;99.90
22471;DHT22;11402;51.374;6.594;2022-12-29T10:04:28;11.30;99.90
22471;DHT22;11402;51.374;6.594;2022-12-29T10:07:30;11.30;99.90
22471;DHT22;11402;51.374;6.594;2022-12-29T10:12:29;11.20;99.90
22471;DHT22;11402;51.374;6.594;2022-12-29T10:18:13;11.20;99.90
22471;DHT22;11402;51.374;6.594;2022-12-29T10:20:55;11.30;99.90
22471;DHT22;11402;51.374;6.594;2022-12-29T10:23:28;11.30;99.90
22471;DHT22;11402;51.374;6.594;2022-12-29T10:25:57;11.30;99.90
22471;DHT22;11402;51.374;6.594;2022-12-29T10:31:19;11.30;99.90
22471;DHT22;11402;51.374;6.594;2022-12-29T10:33:49;11.40;99.90
22471;DHT22;11402;51.374;6.594;2022-12-29T10:36:19;11.40;99.90
22471;DHT22;11402;51.374;6.594;2022-12-29T10:39:52;11.40;99.90
22471;DHT22;11402;51.374;6.594;2022-12-29T10:41:51;11.40;99.90
22471;DHT22;11402;51.374;6.594;2022-12-29T10:44:19;11.40;99.90
22471;DHT22;11402;51.374;6.594;2022-12-29T10:46:55;11.40;99.90
22471;DHT22;11402;51.374;6.594;2022-12-29T10:49:20;11.40;99.90
22471;DHT22;11402;51.374;6.594;2022-12-29T10:51:47;11.40;99.90
22471;DHT22;11402;51.374;6.594;2022-12-29T10:54:20;11.40;99.90
22471;DHT22;11402;51.374;6.594;2022-12-29T10:56:53;11.40;99.90
22471;DHT22;11402;51.374;6.594;2022-12-29T10:59:25;11.40;99.90
22471;DHT22;11402;51.374;6.594;2022-12-29T11:07:17;11.50;99.90
22471;DHT22;11402;51.374;6.594;2022-12-29T11:09:44;11.50;99.90
22471;DHT22;11402;51.374;6.594;2022-12-29T11:12:25;11.50;99.90
22471;DHT22;11402;51.374;6.594;2022-12-29T11:17:47;11.50;99.90
22471;DHT22;11402;51.374;6.594;2022-12-29T11:20:36;11.50;99.90
22471;DHT22;11402;51.374;6.594;2022-12-29T11:23:04;11.50;99.90
22471;DHT22;11402;51.374;6.594;2022-12-29T11:25:30;11.50;99.90
22471;DHT22;11402;51.374;6.594;2022-12-29T11:28:03;11.50;99.90
22471;DHT22;11402;51.374;6.594;2022-12-29T11:30:39;11.50;99.90
22471;DHT22;11402;51.374;6.594;2022-12-29T11:33:04;11.60;99.90
22471;DHT22;11402;51.374;6.594;2022-12-29T11:35:48;11.60;99.90
22471;DHT22;11402;51.374;6.594;2022-12-29T11:38:26;11.60;99.90
22471;DHT22;11402;51.374;6.594;2022-12-29T11:40:54;11.60;99.90
22471;DHT22;11402;51.374;6.594;2022-12-29T11:43:38;11.60;99.90
22471;DHT22;11402;51.374;6.594;2022-12-29T11:46:05;11.60;99.90
22471;DHT22;11402;51.374;6.594;2022-12-29T11:48:41;11.60;99.90
22471;DHT22;11402;51.374;6.594;2022-12-29T11:51:08;11.60;99.90
22471;DHT22;11402;51.374;6.594;2022-12-29T11:53:41;11.60;99.90
22471;DHT22;11402;51.374;6.594;2022-12-29T11:56:16;11.60;99.90
22471;DHT22;11402;51.374;6.594;2022-12-29T11:58:42;11.60;99.90
22471;DHT22;11402;51.374;6.594;2022-12-29T12:04:14;11.60;99.90
22471;DHT22;11402;51.374;6.594;2022-12-29T12:07:13;11.50;99.90
22471;DHT22;11402;51.374;6.594;2022-12-29T12:09:47;11.50;99.90
22471;DHT22;11402;51.374;6.594;2022-12-29T12:12:27;11.60;99.90
22471;DHT22;11402;51.374;6.594;2022-12-29T12:14:56;11.60;99.90
22471;DHT22;11402;51.374;6.594;2022-12-29T12:21:10;11.60;99.90
22471;DHT22;11402;51.374;6.594;2022-12-29T12:23:53;11.50;99.90
22471;DHT22;11402;51.374;6.594;2022-12-29T12:26:35;11.50;99.90
22471;DHT22;11402;51.374;6.594;2022-12-29T12:29:24;11.50;99.90
22471;DHT22;11402;51.374;6.594;2022-12-29T12:32:11;11.60;99.90
22471;DHT22;11402;51.374;6.594;2022-12-29T12:34:42;11.60;99.90
22471;DHT22;11402;51.374;6.594;2022-12-29T12:37:28;11.60;99.90
22471;DHT22;11402;51.374;6.594;2022-12-29T12:40:26;11.60;99.90
22471;DHT22;11402;51.374;6.594;2022-12-29T12:43:15;11.60;99.90
22471;DHT22;11402;51.374;6.594;2022-12-29T12:48:42;11.60;99.90
22471;DHT22;11402;51.374;6.594;2022-12-29T12:59:49;11.70;99.90
22471;DHT22;11402;51.374;6.594;2022-12-29T13:05:02;11.60;99.90
22471;DHT22;11402;51.374;6.594;2022-12-29T13:18:40;11.60;99.90
22471;DHT22;11402;51.374;6.594;2022-12-29T13:21:39;11.60;99.90
22471;DHT22;11402;51.374;6.594;2022-12-29T13:27:18;11.50;99.90
22471;DHT22;11402;51.374;6.594;2022-12-29T13:30:00;11.40;99.90
22471;DHT22;11402;51.374;6.594;2022-12-29T13:38:01;11.40;99.90
22471;DHT22;11402;51.374;6.594;2022-12-29T13:40:32;11.40;99.90
22471;DHT22;11402;51.374;6.594;2022-12-29T13:43:00;11.40;99.90
22471;DHT22;11402;51.374;6.594;2022-12-29T13:45:30;11.40;99.90
22471;DHT22;11402;51.374;6.594;2022-12-29T13:48:02;11.40;99.90
22471;DHT22;11402;51.374;6.594;2022-12-29T13:50:34;11.40;99.90
22471;DHT22;11402;51.374;6.594;2022-12-29T13:53:15;11.40;99.90
22471;DHT22;11402;51.374;6.594;2022-12-29T13:55:55;11.40;99.90
22471;DHT22;11402;51.374;6.594;2022-12-29T13:58:49;11.30;99.90
22471;DHT22;11402;51.374;6.594;2022-12-29T14:01:33;11.40;99.90
22471;DHT22;11402;51.374;6.594;2022-12-29T14:04:00;11.30;99.90
22471;DHT22;11402;51.374;6.594;2022-12-29T14:06:32;11.40;99.90
22471;DHT22;11402;51.374;6.594;2022-12-29T14:09:02;11.30;99.90
22471;DHT22;11402;51.374;6.594;2022-12-29T14:11:34;11.30;99.90
22471;DHT22;11402;51.374;6.594;2022-12-29T14:14:18;11.30;99.90
22471;DHT22;11402;51.374;6.594;2022-12-29T14:16:45;11.40;99.90
22471;DHT22;11402;51.374;6.594;2022-12-29T14:19:24;11.30;99.90
22471;DHT22;11402;51.374;6.594;2022-12-29T14:21:57;11.30;99.90
22471;DHT22;11402;51.374;6.594;2022-12-29T14:29:48;11.30;99.90
22471;DHT22;11402;51.374;6.594;2022-12-29T14:32:36;11.40;99.90
22471;DHT22;11402;51.374;6.594;2022-12-29T14:38:16;11.30;99.90
22471;DHT22;11402;51.374;6.594;2022-12-29T14:40:42;11.30;99.90
22471;DHT22;11402;51.374;6.594;2022-12-29T14:43:20;11.30;99.90
22471;DHT22;11402;51.374;6.594;2022-12-29T14:46:01;11.40;99.90
22471;DHT22;11402;51.374;6.594;2022-12-29T14:48:32;11.30;99.90
22471;DHT22;11402;51.374;6.594;2022-12-29T14:50:59;11.40;99.90
22471;DHT22;11402;51.374;6.594;2022-12-29T14:53:46;11.40;99.90
22471;DHT22;11402;51.374;6.594;2022-12-29T14:56:14;11.40;99.90
22471;DHT22;11402;51.374;6.594;2022-12-29T15:01:33;11.20;99.90
22471;DHT22;11402;51.374;6.594;2022-12-29T15:04:06;11.30;99.90
22471;DHT22;11402;51.374;6.594;2022-12-29T15:06:38;11.30;99.90
22471;DHT22;11402;51.374;6.594;2022-12-29T15:12:33;11.20;99.90
22471;DHT22;11402;51.374;6.594;2022-12-29T15:15:01;11.20;99.90
22471;DHT22;11402;51.374;6.594;2022-12-29T15:17:34;11.10;99.90
22471;DHT22;11402;51.374;6.594;2022-12-29T15:20:14;11.10;99.90
22471;DHT22;11402;51.374;6.594;2022-12-29T15:22:48;11.10;99.90
22471;DHT22;11402;51.374;6.594;2022-12-29T15:25:16;11.00;99.90
22471;DHT22;11402;51.374;6.594;2022-12-29T15:27:52;11.10;99.90
22471;DHT22;11402;51.374;6.594;2022-12-29T15:30:18;11.10;99.90
22471;DHT22;11402;51.374;6.594;2022-12-29T15:32:46;11.10;99.90
22471;DHT22;11402;51.374;6.594;2022-12-29T15:35:30;11.10;99.90
22471;DHT22;11402;51.374;6.594;2022-12-29T15:37:57;11.00;99.90
22471;DHT22;11402;51.374;6.594;2022-12-29T15:40:28;10.90;99.90
22471;DHT22;11402;51.374;6.594;2022-12-29T15:45:54;11.00;99.90
22471;DHT22;11402;51.374;6.594;2022-12-29T15:48:22;10.90;99.90
22471;DHT22;11402;51.374;6.594;2022-12-29T15:50:49;10.90;99.90
22471;DHT22;11402;51.374;6.594;2022-12-29T15:53:33;10.80;99.90
22471;DHT22;11402;51.374;6.594;2022-12-29T15:56:06;10.80;99.90
22471;DHT22;11402;51.374;6.594;2022-12-29T15:58:41;10.70;99.90
22471;DHT22;11402;51.374;6.594;2022-12-29T16:01:24;10.70;99.90
22471;DHT22;11402;51.374;6.594;2022-12-29T16:03:52;10.70;99.90
22471;DHT22;11402;51.374;6.594;2022-12-29T16:06:30;10.70;99.90
22471;DHT22;11402;51.374;6.594;2022-12-29T16:09:05;10.80;99.90
22471;DHT22;11402;51.374;6.594;2022-12-29T16:11:35;10.70;99.90
22471;DHT22;11402;51.374;6.594;2022-12-29T16:14:12;10.80;99.90
22471;DHT22;11402;51.374;6.594;2022-12-29T16:16:41;10.80;99.90
22471;DHT22;11402;51.374;6.594;2022-12-29T16:19:24;10.80;99.90
22471;DHT22;11402;51.374;6.594;2022-12-29T16:21:51;10.70;99.90
22471;DHT22;11402;51.374;6.594;2022-12-29T16:24:20;10.80;99.90
22471;DHT22;11402;51.374;6.594;2022-12-29T16:26:57;10.70;99.90
22471;DHT22;11402;51.374;6.594;2022-12-29T16:29:23;10.70;99.90
22471;DHT22;11402;51.374;6.594;2022-12-29T16:31:55;10.60;99.90
22471;DHT22;11402;51.374;6.594;2022-12-29T16:34:28;10.50;99.90
22471;DHT22;11402;51.374;6.594;2022-12-29T16:39:41;10.60;99.90
22471;DHT22;11402;51.374;6.594;2022-12-29T16:42:35;10.60;99.90
22471;DHT22;11402;51.374;6.594;2022-12-29T16:50:33;10.70;99.90
22471;DHT22;11402;51.374;6.594;2022-12-29T16:52:59;10.50;99.90
22471;DHT22;11402;51.374;6.594;2022-12-29T16:55:24;9.70;99.90
22471;DHT22;11402;51.374;6.594;2022-12-29T16:57:52;9.50;99.90
22471;DHT22;11402;51.374;6.594;2022-12-29T17:00:23;9.20;99.90
22471;DHT22;11402;51.374;6.594;2022-12-29T17:02:50;9.10;99.90
22471;DHT22;11402;51.374;6.594;2022-12-29T17:05:18;8.90;99.90
22471;DHT22;11402;51.374;6.594;2022-12-29T17:07:44;8.90;99.90
22471;DHT22;11402;51.374;6.594;2022-12-29T17:10:10;8.80;99.90
22471;DHT22;11402;51.374;6.594;2022-12-29T17:12:37;8.90;99.90
22471;DHT22;11402;51.374;6.594;2022-12-29T17:15:28;8.70;99.90
22471;DHT22;11402;51.374;6.594;2022-12-29T17:17:59;8.80;99.90
22471;DHT22;11402;51.374;6.594;2022-12-29T17:20:27;8.90;99.90
22471;DHT22;11402;51.374;6.594;2022-12-29T17:22:54;8.90;99.90
22471;DHT22;11402;51.374;6.594;2022-12-29T17:25:31;9.00;99.90
22471;DHT22;11402;51.374;6.594;2022-12-29T17:28:12;9.00;99.90
22471;DHT22;11402;51.374;6.594;2022-12-29T17:30:42;9.00;99.90
22471;DHT22;11402;51.374;6.594;2022-12-29T17:33:12;8.90;99.90
22471;DHT22;11402;51.374;6.594;2022-12-29T17:35:38;8.90;99.90
22471;DHT22;11402;51.374;6.594;2022-12-29T17:38:16;8.90;99.90
22471;DHT22;11402;51.374;6.594;2022-12-29T17:40:42;8.90;99.90
22471;DHT22;11402;51.374;6.594;2022-12-29T17:43:12;8.90;99.90
22471;DHT22;11402;51.374;6.594;2022-12-29T17:45:39;8.90;99.90
22471;DHT22;11402;51.374;6.594;2022-12-29T17:48:16;9.00;99.90